Time;durP1;ratioP1;P1;durP2;ratioP2;P2;SDS_P1;SDS_P2;PMS_P1;PMS_P2;Temp;Humidity;BMP_temperature;BMP_pressure;BME280_temperature;BME280_humidity;BME280_pressure;Samples;Min_cycle;Max_cycle;Signal;HPM_P1;HPM_P2
2021/06/08 00:01:13;;;;;;;12.38;7.55;;;12.20;99.90;;;;;;5036058;28;20044;-64
2021/06/08 00:03:38;;;;;;;10.77;8.32;;;12.40;99.90;;;;;;5034742;28;20025;-63
2021/06/08 00:06:04;;;;;;;10.88;8.20;;;12.30;99.90;;;;;;5032294;28;20643;-63
2021/06/08 00:08:30;;;;;;;10.45;7.53;;;12.10;99.90;;;;;;5035165;28;20029;-63
2021/06/08 00:10:56;;;;;;;11.57;8.35;;;12.10;99.90;;;;;;5033336;28;20072;-63
2021/06/08 00:13:22;;;;;;;10.32;8.27;;;12.10;99.90;;;;;;5035547;28;20068;-63
2021/06/08 00:15:47;;;;;;;12.48;8.38;;;12.10;99.90;;;;;;5033516;28;20062;-63
2021/06/08 00:18:13;;;;;;;15.57;8.20;;;12.00;99.90;;;;;;5036411;28;20140;-63
2021/06/08 00:20:39;;;;;;;12.95;8.55;;;12.10;99.90;;;;;;5033612;28;20029;-62
2021/06/08 00:23:05;;;;;;;11.45;7.72;;;12.00;99.90;;;;;;5035886;28;20029;-62
2021/06/08 00:25:31;;;;;;;11.55;8.63;;;12.00;99.90;;;;;;5012313;28;20088;-62
2021/06/08 00:27:57;;;;;;;12.18;7.68;;;11.90;99.90;;;;;;5011580;28;20570;-62
2021/06/08 00:30:24;;;;;;;10.40;7.20;;;11.90;99.90;;;;;;5017732;28;20025;-63
2021/06/08 00:32:50;;;;;;;14.40;8.60;;;11.90;99.90;;;;;;5012557;28;20033;-62
2021/06/08 00:35:16;;;;;;;12.45;8.13;;;12.00;99.90;;;;;;5013283;28;20776;-62
2021/06/08 00:37:41;;;;;;;12.43;8.95;;;12.10;99.90;;;;;;5007773;28;20104;-62
2021/06/08 00:40:08;;;;;;;10.43;7.95;;;12.20;99.90;;;;;;5015499;28;20037;-63
2021/06/08 00:42:36;;;;;;;11.77;8.98;;;12.10;99.90;;;;;;5013949;28;20121;-62
2021/06/08 00:45:04;;;;;;;11.85;7.78;;;12.20;99.90;;;;;;5014193;28;20120;-62
2021/06/08 00:47:30;;;;;;;12.75;8.25;;;12.10;99.90;;;;;;5014433;28;20117;-62
2021/06/08 00:49:56;;;;;;;13.00;8.60;;;12.00;99.90;;;;;;5013744;28;20553;-63
2021/06/08 00:52:22;;;;;;;14.65;9.02;;;12.00;99.90;;;;;;5014976;28;20094;-62
2021/06/08 00:54:48;;;;;;;10.40;7.95;;;12.10;99.90;;;;;;5014588;28;20037;-63
2021/06/08 00:57:15;;;;;;;9.93;7.65;;;12.10;99.90;;;;;;5014446;28;20109;-63
2021/06/08 00:59:41;;;;;;;8.48;7.25;;;12.00;99.90;;;;;;5007237;28;20437;-63
2021/06/08 01:02:07;;;;;;;10.57;8.13;;;12.00;99.90;;;;;;5014879;28;20555;-64
2021/06/08 01:04:32;;;;;;;11.25;7.95;;;12.10;99.90;;;;;;5012976;28;20140;-63
2021/06/08 01:06:58;;;;;;;11.57;8.68;;;12.00;99.90;;;;;;5013310;28;20025;-64
2021/06/08 01:09:24;;;;;;;12.95;7.63;;;11.90;99.90;;;;;;5010943;28;20025;-63
2021/06/08 01:11:50;;;;;;;11.30;8.00;;;11.90;99.90;;;;;;5016232;28;20037;-63
2021/06/08 01:14:16;;;;;;;11.57;7.30;;;12.00;99.90;;;;;;5012765;28;20048;-63
2021/06/08 01:16:42;;;;;;;9.98;7.70;;;12.10;99.90;;;;;;5016607;28;20374;-63
2021/06/08 01:19:08;;;;;;;16.38;7.53;;;12.10;99.90;;;;;;5014678;28;20033;-63
2021/06/08 01:21:35;;;;;;;11.55;7.57;;;12.30;99.90;;;;;;5007786;28;20137;-62
2021/06/08 01:24:02;;;;;;;14.35;8.10;;;12.30;99.90;;;;;;5016924;28;20041;-62
2021/06/08 01:26:29;;;;;;;10.55;7.63;;;12.30;99.90;;;;;;5035030;28;20029;-63
2021/06/08 01:29:00;;;;;;;12.77;7.72;;;12.40;99.90;;;;;;5017967;28;20164;-63
2021/06/08 01:31:29;;;;;;;9.52;7.60;;;12.40;99.90;;;;;;5030735;28;20033;-63
2021/06/08 01:33:55;;;;;;;12.35;7.40;;;12.40;99.90;;;;;;5012386;28;20040;-63
2021/06/08 01:36:24;;;;;;;10.70;7.80;;;12.40;99.90;;;;;;5032646;28;20021;-64
2021/06/08 01:38:51;;;;;;;11.98;8.82;;;12.50;99.90;;;;;;5034853;28;20087;-64
2021/06/08 01:41:20;;;;;;;10.68;8.45;;;12.50;99.90;;;;;;5013739;28;20494;-63
2021/06/08 01:43:46;;;;;;;11.38;7.25;;;12.50;99.90;;;;;;5031925;28;20138;-64
2021/06/08 01:46:19;;;;;;;11.82;7.38;;;12.60;99.90;;;;;;5032845;28;20098;-63
2021/06/08 01:48:45;;;;;;;9.32;6.95;;;12.70;99.90;;;;;;5030869;28;20123;-63
2021/06/08 01:51:34;;;;;;;11.70;6.97;;;12.70;99.90;;;;;;5032598;28;20060;-63
2021/06/08 01:54:28;;;;;;;11.93;7.80;;;12.70;99.90;;;;;;5034081;28;20045;-64
2021/06/08 01:57:15;;;;;;;13.35;7.43;;;12.70;99.90;;;;;;5028600;28;20025;-63
2021/06/08 02:00:08;;;;;;;10.63;6.70;;;12.60;99.90;;;;;;5033973;28;20063;-64
2021/06/08 02:02:57;;;;;;;8.18;6.07;;;12.60;99.90;;;;;;5033370;28;20038;-64
2021/06/08 02:05:35;;;;;;;10.13;6.28;;;12.60;99.90;;;;;;5016466;28;20500;-64
2021/06/08 02:08:10;;;;;;;10.27;6.90;;;12.50;99.90;;;;;;5034391;28;20032;-64
2021/06/08 02:10:52;;;;;;;10.35;7.22;;;12.60;99.90;;;;;;5032388;28;20021;-64
2021/06/08 02:13:44;;;;;;;9.95;6.38;;;12.60;99.90;;;;;;5032187;28;20099;-64
2021/06/08 02:16:36;;;;;;;10.18;7.00;;;12.60;99.90;;;;;;5031557;28;20033;-64
2021/06/08 02:19:04;;;;;;;10.75;7.22;;;12.60;99.90;;;;;;5035860;28;20036;-64
2021/06/08 02:21:39;;;;;;;10.63;6.97;;;12.60;99.90;;;;;;5031228;28;20314;-63
2021/06/08 02:24:07;;;;;;;9.32;6.28;;;12.60;99.90;;;;;;5034592;28;20045;-64
2021/06/08 02:26:37;;;;;;;10.95;6.80;;;12.60;99.90;;;;;;5034087;28;20568;-64
2021/06/08 02:29:03;;;;;;;11.35;6.90;;;12.60;99.90;;;;;;5033414;28;20052;-64
2021/06/08 02:31:30;;;;;;;8.52;7.18;;;12.60;99.90;;;;;;5031247;28;20033;-64
2021/06/08 02:33:57;;;;;;;11.57;6.70;;;12.60;99.90;;;;;;5034936;28;20036;-64
2021/06/08 02:36:24;;;;;;;9.07;7.10;;;12.60;99.90;;;;;;5032736;28;20052;-64
2021/06/08 02:38:53;;;;;;;9.90;6.72;;;12.70;99.90;;;;;;5035606;28;20037;-64
2021/06/08 02:41:19;;;;;;;9.88;6.90;;;12.70;99.90;;;;;;5036252;28;20126;-64
2021/06/08 02:43:47;;;;;;;10.27;6.97;;;12.80;99.90;;;;;;5037478;28;20029;-64
2021/06/08 02:46:14;;;;;;;12.60;6.95;;;12.80;99.90;;;;;;5037160;28;20583;-64
2021/06/08 02:48:41;;;;;;;11.40;7.88;;;12.70;99.90;;;;;;5037752;28;20025;-64
2021/06/08 02:51:07;;;;;;;11.73;6.90;;;12.80;99.90;;;;;;5035344;28;20110;-64
2021/06/08 02:53:35;;;;;;;11.00;7.50;;;12.70;99.90;;;;;;5038047;28;20036;-64
2021/06/08 02:56:01;;;;;;;9.80;6.70;;;12.70;99.90;;;;;;5038284;28;20037;-64
2021/06/08 02:58:28;;;;;;;9.35;6.57;;;12.70;99.90;;;;;;5026043;28;20025;-65
2021/06/08 03:00:54;;;;;;;7.78;6.35;;;12.70;99.90;;;;;;5034337;28;20036;-63
2021/06/08 03:03:41;;;;;;;7.75;6.38;;;12.70;99.90;;;;;;5037591;28;20039;-64
2021/06/08 03:06:15;;;;;;;10.98;7.53;;;12.60;99.90;;;;;;5034727;28;20373;-64
2021/06/08 03:08:46;;;;;;;10.93;7.10;;;12.50;99.90;;;;;;5019537;28;20426;-64
2021/06/08 03:11:19;;;;;;;12.13;7.32;;;12.60;99.90;;;;;;5035903;28;20107;-64
2021/06/08 03:13:46;;;;;;;15.63;7.68;;;12.50;99.90;;;;;;5035862;28;20483;-64
2021/06/08 03:16:14;;;;;;;10.23;7.00;;;12.60;99.90;;;;;;5036232;28;20435;-64
2021/06/08 03:18:44;;;;;;;11.30;7.72;;;12.70;99.90;;;;;;5037950;28;20434;-64
2021/06/08 03:21:18;;;;;;;11.38;7.85;;;12.70;99.90;;;;;;5032743;28;20033;-64
2021/06/08 03:23:50;;;;;;;9.10;7.22;;;12.70;99.90;;;;;;5035243;28;20434;-64
2021/06/08 03:26:16;;;;;;;10.55;7.20;;;12.70;99.90;;;;;;5036395;28;20313;-64
2021/06/08 03:28:45;;;;;;;10.90;6.95;;;12.70;99.90;;;;;;5034459;28;20029;-64
2021/06/08 03:31:13;;;;;;;16.40;7.15;;;12.70;99.90;;;;;;5031838;28;20250;-64
2021/06/08 03:33:40;;;;;;;12.30;6.78;;;12.80;99.90;;;;;;5036828;28;20300;-63
2021/06/08 03:36:07;;;;;;;10.73;6.40;;;12.80;99.90;;;;;;5033765;28;20353;-64
2021/06/08 03:38:33;;;;;;;9.77;6.93;;;12.80;99.90;;;;;;5034135;28;20090;-64
2021/06/08 03:41:00;;;;;;;10.68;6.35;;;12.80;99.90;;;;;;5034391;28;20021;-63
2021/06/08 03:43:27;;;;;;;9.13;5.65;;;12.80;99.90;;;;;;5033487;28;20025;-64
2021/06/08 03:45:52;;;;;;;14.27;6.32;;;12.80;99.90;;;;;;5034076;28;20045;-63
2021/06/08 03:48:20;;;;;;;8.77;5.75;;;12.80;99.90;;;;;;5037125;28;20082;-63
2021/06/08 03:50:50;;;;;;;9.50;5.80;;;12.80;99.90;;;;;;5033241;28;20090;-64
2021/06/08 03:53:16;;;;;;;;;;;12.80;99.90;;;;;;5032763;28;20124;-63
2021/06/08 03:55:43;;;;;;;6.88;4.90;;;12.80;99.90;;;;;;5031937;28;20014;-63
2021/06/08 03:58:14;;;;;;;8.73;5.57;;;12.80;99.90;;;;;;5030895;28;20567;-64
2021/06/08 04:00:41;;;;;;;9.75;5.95;;;12.80;99.90;;;;;;5026899;28;20067;-63
2021/06/08 04:03:10;;;;;;;8.95;5.85;;;12.90;99.90;;;;;;5032309;28;20025;-74
2021/06/08 04:05:37;;;;;;;7.65;5.38;;;12.90;99.90;;;;;;5029564;28;20032;-73
2021/06/08 04:08:08;;;;;;;14.13;6.85;;;13.00;99.90;;;;;;5030756;28;20095;-73
2021/06/08 04:10:35;;;;;;;9.93;6.13;;;13.00;99.90;;;;;;5030522;28;20037;-73
2021/06/08 04:13:03;;;;;;;8.88;5.95;;;13.00;99.90;;;;;;5033099;28;20033;-73
2021/06/08 04:15:30;;;;;;;7.45;5.72;;;13.10;99.90;;;;;;5028228;28;20538;-71
2021/06/08 04:17:56;;;;;;;7.85;5.35;;;13.10;99.90;;;;;;5029642;28;20053;-70
2021/06/08 04:20:26;;;;;;;10.15;5.47;;;13.20;99.90;;;;;;5029527;28;20037;-71
2021/06/08 04:22:56;;;;;;;9.38;5.60;;;13.20;99.90;;;;;;5029125;28;20137;-71
2021/06/08 04:25:22;;;;;;;;;;;13.30;99.90;;;;;;5033414;28;20493;-71
2021/06/08 04:27:48;;;;;;;8.25;5.85;;;13.30;99.90;;;;;;5034520;28;20432;-72
2021/06/08 04:30:15;;;;;;;6.68;5.50;;;13.30;99.90;;;;;;5033119;28;20022;-72
2021/06/08 04:32:41;;;;;;;8.20;6.40;;;13.30;99.90;;;;;;5035661;28;20029;-71
2021/06/08 04:35:08;;;;;;;9.25;6.47;;;13.30;99.90;;;;;;5032000;28;20563;-72
2021/06/08 04:37:35;;;;;;;8.75;7.43;;;13.40;99.90;;;;;;5033773;28;20106;-72
2021/06/08 04:40:03;;;;;;;10.32;7.03;;;13.30;99.90;;;;;;5036283;28;20128;-71
2021/06/08 04:42:29;;;;;;;8.90;6.85;;;13.30;99.90;;;;;;5032924;28;20029;-71
2021/06/08 04:44:55;;;;;;;10.95;7.32;;;13.30;99.90;;;;;;5033031;28;20032;-71
2021/06/08 04:47:21;;;;;;;9.23;7.40;;;13.40;99.90;;;;;;5033743;28;20025;-71
2021/06/08 04:49:48;;;;;;;10.93;7.13;;;13.50;99.90;;;;;;5031084;28;20615;-71
2021/06/08 04:52:14;;;;;;;11.27;7.30;;;13.50;99.90;;;;;;5027685;28;20451;-71
2021/06/08 04:54:41;;;;;;;10.80;6.43;;;13.60;99.90;;;;;;5032118;28;20051;-71
2021/06/08 04:57:10;;;;;;;8.15;6.68;;;13.70;99.90;;;;;;5032404;28;20264;-71
2021/06/08 04:59:57;;;;;;;10.30;6.15;;;13.80;99.90;;;;;;5029203;28;20033;-71
2021/06/08 05:02:43;;;;;;;9.48;5.70;;;13.90;99.90;;;;;;5030782;28;20029;-71
2021/06/08 05:05:27;;;;;;;8.38;5.50;;;13.90;99.90;;;;;;5031726;28;20063;-71
2021/06/08 05:08:14;;;;;;;9.65;5.90;;;14.00;99.90;;;;;;5030226;28;20025;-71
2021/06/08 05:10:48;;;;;;;9.50;5.82;;;14.00;99.90;;;;;;5032687;28;20025;-71
2021/06/08 05:13:15;;;;;;;8.73;5.53;;;14.10;99.90;;;;;;5033344;28;20033;-71
2021/06/08 05:15:43;;;;;;;10.52;5.60;;;14.10;99.90;;;;;;5033759;28;20095;-71
2021/06/08 05:18:13;;;;;;;10.80;5.70;;;14.00;99.90;;;;;;5035832;28;20388;-71
2021/06/08 05:20:41;;;;;;;8.95;5.00;;;14.10;99.90;;;;;;5035373;28;20045;-71
2021/06/08 05:23:07;;;;;;;8.60;5.10;;;14.00;99.90;;;;;;5036791;28;20032;-70
2021/06/08 05:25:33;;;;;;;8.70;5.15;;;14.10;99.90;;;;;;5033485;28;20526;-71
2021/06/08 05:28:01;;;;;;;7.28;5.00;;;14.20;99.90;;;;;;5036711;28;20040;-72
2021/06/08 05:30:27;;;;;;;6.32;4.70;;;14.40;99.90;;;;;;5018106;28;20131;-71
2021/06/08 05:32:53;;;;;;;9.77;5.07;;;14.50;99.90;;;;;;5033331;28;20081;-71
2021/06/08 05:35:28;;;;;;;9.68;4.72;;;14.80;99.90;;;;;;5036860;28;20477;-71
2021/06/08 05:38:01;;;;;;;7.95;4.68;;;15.00;99.90;;;;;;5035449;28;20472;-71
2021/06/08 05:40:27;;;;;;;9.68;3.67;;;15.30;99.90;;;;;;5036174;28;20124;-71
2021/06/08 05:42:53;;;;;;;5.43;3.97;;;15.50;99.90;;;;;;5036345;28;20029;-72
2021/06/08 05:45:18;;;;;;;9.48;4.88;;;15.50;99.90;;;;;;5035527;28;20056;-71
2021/06/08 05:47:44;;;;;;;5.75;4.18;;;15.60;99.90;;;;;;5036880;28;20029;-72
2021/06/08 05:50:11;;;;;;;9.63;4.50;;;15.70;99.90;;;;;;5037399;28;20057;-71
2021/06/08 05:52:37;;;;;;;7.38;4.45;;;16.00;99.90;;;;;;5036723;28;20447;-71
2021/06/08 05:55:05;;;;;;;6.57;3.72;;;16.00;99.90;;;;;;5034492;28;20037;-71
2021/06/08 05:57:32;;;;;;;7.93;4.10;;;16.20;99.90;;;;;;5035991;28;20029;-71
2021/06/08 06:00:02;;;;;;;4.03;3.63;;;16.30;99.90;;;;;;5033977;28;20391;-71
2021/06/08 06:02:29;;;;;;;6.63;3.67;;;16.40;99.90;;;;;;5034147;28;20060;-71
2021/06/08 06:04:56;;;;;;;7.40;4.13;;;16.50;99.90;;;;;;5035590;28;20029;-71
2021/06/08 06:07:23;;;;;;;4.85;4.20;;;16.40;99.90;;;;;;5034034;28;20123;-71
2021/06/08 06:09:49;;;;;;;8.85;4.60;;;16.30;99.90;;;;;;5036689;28;20033;-72
2021/06/08 06:12:15;;;;;;;9.10;4.60;;;16.40;99.90;;;;;;5032822;28;21332;-72
2021/06/08 06:14:41;;;;;;;10.43;5.55;;;16.40;99.90;;;;;;5039073;28;20717;-71
2021/06/08 06:17:08;;;;;;;4.90;4.13;;;16.60;99.90;;;;;;5039786;28;20037;-71
2021/06/08 06:19:35;;;;;;;29.83;12.15;;;16.70;99.90;;;;;;5037922;28;20044;-72
2021/06/08 06:22:01;;;;;;;8.10;4.88;;;17.00;99.90;;;;;;5040336;28;20528;-72
2021/06/08 06:24:31;;;;;;;9.73;4.25;;;17.30;99.90;;;;;;5021346;28;20045;-72
2021/06/08 06:26:57;;;;;;;9.32;4.32;;;17.60;99.90;;;;;;5038488;28;20392;-72
2021/06/08 06:29:23;;;;;;;5.75;3.60;;;17.90;99.90;;;;;;5040059;28;20083;-72
2021/06/08 06:31:50;;;;;;;7.43;4.40;;;18.10;99.90;;;;;;5040271;28;20108;-72
2021/06/08 06:34:21;;;;;;;6.57;3.78;;;18.10;99.90;;;;;;5038278;28;20148;-72
2021/06/08 06:36:49;;;;;;;7.13;3.83;;;17.80;99.90;;;;;;5038132;28;20500;-72
2021/06/08 06:39:18;;;;;;;7.00;4.32;;;17.70;99.90;;;;;;5039682;28;20040;-72
2021/06/08 06:41:47;;;;;;;6.50;4.20;;;17.90;99.90;;;;;;5040313;28;20029;-72
2021/06/08 06:44:14;;;;;;;10.38;4.70;;;18.00;99.90;;;;;;5040385;28;20055;-72
2021/06/08 06:46:41;;;;;;;8.55;4.30;;;18.00;99.90;;;;;;5037930;28;20032;-72
2021/06/08 06:49:07;;;;;;;17.88;6.85;;;17.90;99.90;;;;;;5038166;28;20039;-72
2021/06/08 06:51:33;;;;;;;11.07;4.50;;;18.10;99.90;;;;;;5038790;28;20380;-73
2021/06/08 06:53:59;;;;;;;7.25;4.10;;;18.30;99.90;;;;;;5039610;28;20063;-73
2021/06/08 06:56:26;;;;;;;7.35;4.43;;;18.30;99.90;;;;;;5040472;28;20346;-72
2021/06/08 06:58:54;;;;;;;8.88;4.80;;;18.20;99.90;;;;;;5038558;28;20032;-73
2021/06/08 07:01:24;;;;;;;6.90;4.15;;;18.00;99.90;;;;;;5018616;28;20608;-73
2021/06/08 07:03:53;;;;;;;9.02;3.58;;;18.10;99.90;;;;;;5018746;28;20032;-73
2021/06/08 07:06:20;;;;;;;8.50;4.97;;;18.40;99.90;;;;;;5039782;28;20029;-73
2021/06/08 07:08:50;;;;;;;6.85;3.45;;;18.70;99.90;;;;;;5038017;28;20284;-73
2021/06/08 07:11:16;;;;;;;7.68;4.30;;;18.80;99.90;;;;;;5039537;28;20041;-74
2021/06/08 07:13:43;;;;;;;7.50;4.97;;;19.10;99.90;;;;;;5037859;28;20434;-73
2021/06/08 07:16:09;;;;;;;7.03;4.45;;;19.20;99.90;;;;;;5038716;28;20068;-73
2021/06/08 07:18:35;;;;;;;7.32;4.53;;;19.30;99.90;;;;;;5039134;28;20089;-74
2021/06/08 07:21:04;;;;;;;6.13;3.88;;;19.30;99.90;;;;;;5038121;28;20041;-73
2021/06/08 07:23:31;;;;;;;8.32;3.95;;;19.30;99.90;;;;;;5038647;28;20056;-74
2021/06/08 07:25:57;;;;;;;8.38;4.63;;;19.30;99.90;;;;;;5038950;28;20103;-73
2021/06/08 07:28:23;;;;;;;5.88;4.47;;;19.60;99.90;;;;;;5037614;28;20029;-73
2021/06/08 07:30:50;;;;;;;6.63;4.35;;;19.70;99.90;;;;;;5020757;28;20537;-74
2021/06/08 07:33:41;;;;;;;5.85;3.63;;;19.90;99.90;;;;;;5037239;28;20641;-74
2021/06/08 07:36:18;;;;;;;7.30;4.25;;;20.20;99.90;;;;;;5038723;28;20041;-73
2021/06/08 07:38:57;;;;;;;5.25;3.95;;;20.30;99.90;;;;;;5038877;28;20025;-74
2021/06/08 07:41:51;;;;;;;5.25;4.15;;;20.30;99.90;;;;;;5038870;28;20554;-74
2021/06/08 07:44:28;;;;;;;6.32;3.67;;;20.30;99.90;;;;;;5029963;28;20545;-74
2021/06/08 07:46:57;;;;;;;3.50;3.08;;;20.50;99.90;;;;;;5036935;28;20037;-74
2021/06/08 07:49:24;;;;;;;4.20;3.17;;;20.70;99.90;;;;;;5038593;28;20058;-74
2021/06/08 07:51:50;;;;;;;7.40;4.30;;;20.80;99.90;;;;;;5036751;28;20029;-74
2021/06/08 07:54:16;;;;;;;6.82;4.03;;;21.00;99.90;;;;;;5038189;28;20084;-74
2021/06/08 07:56:42;;;;;;;4.90;3.33;;;20.90;99.90;;;;;;5037295;28;20152;-74
2021/06/08 07:59:13;;;;;;;6.70;2.95;;;21.00;99.90;;;;;;5038551;28;20076;-74
2021/06/08 08:01:43;;;;;;;4.63;2.97;;;21.30;99.90;;;;;;5037304;28;20032;-74
2021/06/08 08:04:11;;;;;;;3.90;2.40;;;21.10;99.90;;;;;;5034641;28;20021;-74
2021/06/08 08:06:37;;;;;;;5.18;3.15;;;21.20;99.90;;;;;;5038016;28;20447;-74
2021/06/08 08:09:04;;;;;;;6.20;2.80;;;21.10;99.90;;;;;;5038537;28;20033;-74
2021/06/08 08:11:32;;;;;;;7.22;3.17;;;21.20;99.90;;;;;;5037380;28;20032;-75
2021/06/08 08:13:59;;;;;;;4.75;2.55;;;21.20;99.90;;;;;;5038017;28;20542;-74
2021/06/08 08:16:25;;;;;;;7.32;2.80;;;21.20;99.90;;;;;;5036282;28;20052;-74
2021/06/08 08:18:52;;;;;;;5.50;3.03;;;21.40;99.90;;;;;;5036962;28;20033;-75
2021/06/08 08:21:19;;;;;;;5.40;3.10;;;21.60;99.90;;;;;;5016253;28;20773;-74
2021/06/08 08:23:46;;;;;;;9.82;2.55;;;22.00;99.90;;;;;;5037599;28;20029;-74
2021/06/08 08:26:13;;;;;;;3.28;2.40;;;22.20;99.90;;;;;;5038511;28;20156;-75
2021/06/08 08:28:42;;;;;;;5.40;2.42;;;22.00;99.90;;;;;;5037909;28;20087;-74
2021/06/08 08:31:12;;;;;;;6.80;2.63;;;21.80;99.90;;;;;;5035713;28;20029;-75
2021/06/08 08:33:38;;;;;;;3.65;2.35;;;21.90;99.90;;;;;;5037540;28;20082;-74
2021/06/08 08:36:05;;;;;;;4.88;2.35;;;22.00;99.90;;;;;;5009942;28;20029;-75
2021/06/08 08:38:31;;;;;;;4.85;2.75;;;22.10;99.90;;;;;;5036996;28;20033;-75
2021/06/08 08:41:01;;;;;;;3.17;2.28;;;22.00;99.90;;;;;;5019387;28;20033;-75
2021/06/08 08:43:27;;;;;;;3.35;2.20;;;22.20;99.90;;;;;;5037860;28;20555;-75
2021/06/08 08:45:54;;;;;;;6.57;3.25;;;22.50;99.90;;;;;;5036803;28;20377;-75
2021/06/08 08:48:20;;;;;;;5.25;2.53;;;22.70;99.90;;;;;;5037919;28;20027;-74
2021/06/08 08:50:47;;;;;;;3.88;2.45;;;22.70;99.90;;;;;;5035031;28;20424;-75
2021/06/08 08:53:16;;;;;;;5.65;2.10;;;22.60;99.90;;;;;;5001926;28;20032;-75
2021/06/08 08:55:42;;;;;;;7.57;2.53;;;22.70;99.90;;;;;;5037783;28;20366;-76
2021/06/08 08:58:08;;;;;;;5.25;1.90;;;22.80;99.90;;;;;;5036877;28;20324;-75
2021/06/08 09:00:35;;;;;;;3.75;2.33;;;22.80;99.90;;;;;;5035848;28;20117;-75
2021/06/08 09:03:04;;;;;;;4.07;2.65;;;22.50;99.90;;;;;;5036894;28;20071;-75
2021/06/08 09:05:35;;;;;;;4.80;2.20;;;22.60;99.90;;;;;;5035877;28;20130;-75
2021/06/08 09:08:02;;;;;;;5.25;2.33;;;22.60;99.90;;;;;;5035827;28;20443;-75
2021/06/08 09:10:28;;;;;;;3.17;1.85;;;22.60;99.90;;;;;;5037067;28;20033;-76
2021/06/08 09:12:54;;;;;;;5.78;2.53;;;22.70;99.90;;;;;;5036184;28;20118;-76
2021/06/08 09:15:20;;;;;;;4.82;2.60;;;22.80;99.90;;;;;;5036471;28;20546;-75
2021/06/08 09:17:46;;;;;;;3.03;2.08;;;23.10;99.90;;;;;;5035566;28;20033;-75
2021/06/08 09:20:13;;;;;;;4.40;2.20;;;22.90;99.90;;;;;;5033607;28;20463;-76
2021/06/08 09:22:53;;;;;;;3.85;2.28;;;22.90;99.90;;;;;;5036045;28;20032;-76
2021/06/08 09:25:37;;;;;;;4.22;2.42;;;23.00;99.90;;;;;;5036365;28;20143;-75
2021/06/08 09:28:26;;;;;;;3.50;2.33;;;23.20;99.90;;;;;;5037190;28;20108;-75
2021/06/08 09:30:58;;;;;;;3.47;2.58;;;23.30;99.90;;;;;;5007847;28;20043;-76
2021/06/08 09:33:29;;;;;;;3.33;2.28;;;23.40;99.90;;;;;;5034687;28;20017;-76
2021/06/08 09:36:02;;;;;;;4.97;2.05;;;23.40;99.90;;;;;;5034225;28;20072;-76
2021/06/08 09:38:50;;;;;;;3.72;2.00;;;23.40;99.90;;;;;;5036851;28;20021;-76
2021/06/08 09:41:30;;;;;;;5.75;2.00;;;23.50;99.90;;;;;;5036970;28;20747;-76
2021/06/08 09:44:05;;;;;;;4.15;2.10;;;23.80;99.90;;;;;;5035849;28;20399;-76
2021/06/08 09:46:43;;;;;;;4.50;2.55;;;23.40;99.90;;;;;;5036251;28;20522;-77
2021/06/08 09:49:09;;;;;;;3.75;2.30;;;23.30;99.90;;;;;;5036759;28;20131;-77
2021/06/08 09:51:59;;;;;;;4.32;2.83;;;23.20;99.90;;;;;;5035649;28;20102;-76
2021/06/08 09:54:36;;;;;;;4.30;2.17;;;22.90;99.90;;;;;;5033745;28;20086;-76
2021/06/08 09:57:16;;;;;;;4.18;2.15;;;23.20;99.90;;;;;;5036630;28;20457;-76
2021/06/08 09:59:56;;;;;;;3.88;2.00;;;23.40;99.90;;;;;;5036849;28;20041;-77
2021/06/08 10:02:25;;;;;;;;;;;23.70;99.90;;;;;;5035494;28;20032;-76
2021/06/08 10:04:52;;;;;;;3.40;2.28;;;23.70;99.90;;;;;;5032581;28;19916;-77
2021/06/08 10:07:32;;;;;;;6.15;2.10;;;24.00;99.90;;;;;;5036294;28;20021;-77
2021/06/08 10:10:13;;;;;;;5.00;2.60;;;24.30;99.90;;;;;;5035091;28;20073;-77
2021/06/08 10:12:56;;;;;;;7.20;2.92;;;23.90;99.90;;;;;;5036935;28;20544;-77
2021/06/08 10:15:23;;;;;;;2.45;2.20;;;23.40;99.90;;;;;;5034650;28;20053;-76
2021/06/08 10:17:59;;;;;;;3.03;2.22;;;23.20;99.90;;;;;;5036585;28;20389;-75
2021/06/08 10:20:29;;;;;;;4.88;2.20;;;23.50;99.90;;;;;;5036721;28;20512;-77
2021/06/08 10:22:55;;;;;;;4.13;1.95;;;23.10;99.90;;;;;;5035742;28;20033;-77
2021/06/08 10:25:21;;;;;;;2.58;2.30;;;23.30;99.90;;;;;;5034022;28;20045;-76
2021/06/08 10:27:48;;;;;;;2.20;1.67;;;23.50;99.90;;;;;;5035536;28;20033;-77
2021/06/08 10:30:15;;;;;;;2.70;1.48;;;23.70;99.90;;;;;;5035753;28;20025;-77
2021/06/08 10:32:41;;;;;;;2.50;2.20;;;24.10;99.90;;;;;;5036589;28;20090;-76
2021/06/08 10:35:09;;;;;;;2.60;1.40;;;24.20;99.90;;;;;;5033510;28;20673;-77
2021/06/08 10:37:36;;;;;;;1.65;1.20;;;24.20;99.90;;;;;;5035492;28;20087;-76
2021/06/08 10:40:04;;;;;;;6.68;1.80;;;24.10;99.90;;;;;;5035482;28;20030;-76
2021/06/08 10:42:30;;;;;;;4.40;1.65;;;23.80;99.90;;;;;;5034264;28;20029;-77
2021/06/08 10:45:04;;;;;;;6.57;1.50;;;23.80;99.90;;;;;;5035190;28;20034;-77
2021/06/08 10:50:00;;;;;;;2.33;1.60;;;24.00;99.90;;;;;;5034668;28;20741;-77
2021/06/08 10:52:27;;;;;;;2.20;1.30;;;24.00;99.90;;;;;;5032728;28;20035;-74
2021/06/08 10:54:54;;;;;;;2.97;1.83;;;24.00;99.90;;;;;;5017065;28;20106;-77
2021/06/08 10:57:21;;;;;;;3.83;1.77;;;24.00;99.90;;;;;;5036694;28;20357;-77
2021/06/08 10:59:48;;;;;;;3.80;1.60;;;24.30;99.90;;;;;;5037186;28;20028;-76
2021/06/08 11:02:46;;;;;;;3.13;1.85;;;24.40;99.90;;;;;;5037926;28;20091;-76
2021/06/08 11:05:13;;;;;;;4.15;1.70;;;24.60;99.90;;;;;;5037833;28;20037;-77
2021/06/08 11:07:47;;;;;;;3.72;2.15;;;24.50;99.90;;;;;;5022124;28;20021;-76
2021/06/08 11:10:25;;;;;;;4.82;2.22;;;24.50;99.90;;;;;;5038878;28;20024;-77
2021/06/08 11:13:16;;;;;;;5.25;2.50;;;24.30;99.90;;;;;;5039493;28;20373;-77
2021/06/08 11:15:46;;;;;;;4.03;1.38;;;24.70;99.90;;;;;;5036450;28;20121;-78
2021/06/08 11:18:18;;;;;;;2.22;1.70;;;24.90;99.90;;;;;;5038767;28;20530;-78
2021/06/08 11:20:47;;;;;;;2.30;1.60;;;24.80;99.90;;;;;;5039119;28;20032;-78
2021/06/08 11:23:32;;;;;;;2.53;1.65;;;24.60;99.90;;;;;;5039267;28;20052;-78
2021/06/08 11:25:58;;;;;;;2.92;1.55;;;24.70;99.90;;;;;;5036925;28;20079;-77
2021/06/08 11:28:39;;;;;;;5.15;1.52;;;24.80;99.90;;;;;;5039873;28;20390;-79
2021/06/08 11:31:05;;;;;;;4.07;1.90;;;25.20;99.90;;;;;;5039077;28;20029;-80
2021/06/08 11:33:34;;;;;;;2.92;1.45;;;25.30;99.90;;;;;;5038778;28;20362;-79
2021/06/08 11:36:03;;;;;;;2.05;1.33;;;25.30;99.90;;;;;;5036766;28;20032;-78
2021/06/08 11:38:34;;;;;;;2.85;1.65;;;25.30;99.90;;;;;;5037152;28;20014;-78
2021/06/08 11:41:02;;;;;;;3.15;1.50;;;25.10;99.80;;;;;;5038778;28;20075;-80
2021/06/08 11:43:28;;;;;;;3.47;1.57;;;24.80;99.90;;;;;;5037997;28;20087;-80
2021/06/08 11:46:05;;;;;;;3.20;1.42;;;25.00;99.20;;;;;;5036461;28;20450;-79
2021/06/08 11:48:34;;;;;;;1.15;0.90;;;25.40;98.20;;;;;;5039222;28;20037;-78
2021/06/08 11:51:02;;;;;;;3.60;1.50;;;25.30;98.20;;;;;;5038504;28;20318;-78
2021/06/08 11:53:28;;;;;;;2.92;1.17;;;25.00;99.10;;;;;;5038525;28;20116;-77
2021/06/08 11:56:08;;;;;;;1.88;1.33;;;24.60;97.90;;;;;;5037609;28;20036;-77
2021/06/08 11:58:36;;;;;;;1.85;1.13;;;24.00;99.90;;;;;;5038003;28;20614;-77
2021/06/08 12:01:05;;;;;;;1.08;0.82;;;23.70;99.00;;;;;;5035574;28;20037;-77
2021/06/08 12:03:38;;;;;;;5.97;1.30;;;23.80;97.90;;;;;;5020266;28;20047;-76
2021/06/08 12:06:06;;;;;;;2.72;1.02;;;24.00;98.50;;;;;;5035054;28;20147;-77
2021/06/08 12:08:36;;;;;;;3.78;1.20;;;24.00;99.90;;;;;;5034405;28;20033;-76
2021/06/08 12:11:28;;;;;;;4.15;1.65;;;24.10;98.40;;;;;;5037610;28;20040;-76
2021/06/08 12:13:54;;;;;;;2.55;1.05;;;24.40;99.10;;;;;;5035290;28;20033;-76
2021/06/08 12:16:20;;;;;;;1.40;1.13;;;24.50;97.90;;;;;;5038146;28;20028;-77
2021/06/08 12:18:47;;;;;;;1.85;0.80;;;24.30;97.90;;;;;;5037663;28;20491;-76
2021/06/08 12:21:15;;;;;;;2.15;1.35;;;23.90;96.60;;;;;;5037680;28;20032;-76
2021/06/08 12:23:41;;;;;;;2.72;1.13;;;23.80;97.60;;;;;;5037343;28;20700;-76
2021/06/08 12:26:18;;;;;;;2.78;1.10;;;23.70;98.30;;;;;;5037211;28;20461;-75
2021/06/08 12:29:14;;;;;;;1.85;1.00;;;23.40;97.50;;;;;;5037083;28;20029;-76
2021/06/08 12:31:55;;;;;;;1.90;1.02;;;23.10;98.60;;;;;;5037310;28;20043;-75
2021/06/08 12:34:24;;;;;;;1.13;0.90;;;22.90;98.40;;;;;;5038106;28;20045;-75
2021/06/08 12:36:51;;;;;;;2.13;1.15;;;23.00;98.90;;;;;;5019532;28;20033;-75
2021/06/08 12:39:28;;;;;;;3.00;1.08;;;23.00;98.80;;;;;;5034557;28;20503;-75
2021/06/08 12:42:12;;;;;;;1.90;1.00;;;23.00;99.00;;;;;;5036934;28;20090;-75
2021/06/08 12:44:40;;;;;;;3.22;1.42;;;23.10;97.90;;;;;;5037095;28;20577;-76
2021/06/08 12:47:06;;;;;;;2.25;1.20;;;23.20;99.00;;;;;;5037478;28;20401;-75
2021/06/08 12:49:40;;;;;;;2.65;1.13;;;23.40;98.70;;;;;;5003099;28;20497;-76
2021/06/08 12:52:12;;;;;;;1.20;0.95;;;23.50;97.90;;;;;;5037472;28;20067;-75
2021/06/08 12:54:43;;;;;;;3.15;1.00;;;23.50;97.70;;;;;;5036074;28;20044;-75
2021/06/08 12:57:32;;;;;;;1.10;1.00;;;23.50;98.40;;;;;;5036899;28;20037;-75
2021/06/08 13:00:09;;;;;;;4.15;1.13;;;23.50;98.90;;;;;;5036065;28;20039;-75
2021/06/08 13:02:36;;;;;;;2.53;0.95;;;23.40;98.80;;;;;;5037598;28;20029;-74